createdAt,value
2018-12-16T00:01:52.781Z,39.27
2018-12-16T00:04:21.467Z,41.53
2018-12-16T00:06:50.260Z,37.38
2018-12-16T00:09:19.155Z,38.60
2018-12-16T00:11:48.039Z,38.13
2018-12-16T00:14:17.032Z,35.80
2018-12-16T00:16:46.017Z,38.33
2018-12-16T00:19:15.021Z,39.40
2018-12-16T00:21:43.955Z,41.08
2018-12-16T00:24:12.846Z,38.95
2018-12-16T00:26:53.048Z,37.58
2018-12-16T00:29:22.041Z,35.68
2018-12-16T00:31:50.913Z,37.85
2018-12-16T00:34:19.819Z,35.48
2018-12-16T00:36:48.609Z,37.90
2018-12-16T00:39:17.458Z,38.23
2018-12-16T00:41:46.421Z,38.15
2018-12-16T00:44:15.671Z,34.85
2018-12-16T00:46:44.474Z,36.25
2018-12-16T00:49:13.368Z,37.28
2018-12-16T00:51:42.463Z,35.85
2018-12-16T00:54:11.504Z,36.28
2018-12-16T00:56:40.444Z,32.05
2018-12-16T00:59:09.335Z,36.90
2018-12-16T01:01:38.225Z,39.55
2018-12-16T01:04:07.175Z,32.93
2018-12-16T01:06:36.006Z,33.70
2018-12-16T01:09:07.025Z,34.75
2018-12-16T01:11:35.835Z,34.98
2018-12-16T01:14:04.729Z,35.90
2018-12-16T01:16:34.126Z,35.10
2018-12-16T01:19:03.123Z,33.23
2018-12-16T01:21:32.276Z,33.75
2018-12-16T01:24:01.105Z,32.85
2018-12-16T01:26:30.508Z,30.85
2018-12-16T01:28:59.294Z,31.25
2018-12-16T01:31:28.185Z,29.65
2018-12-16T01:33:57.280Z,31.62
2018-12-16T01:36:26.329Z,31.62
2018-12-16T01:38:55.109Z,31.52
2018-12-16T01:41:23.974Z,27.55
2018-12-16T01:43:52.942Z,28.27
2018-12-16T01:46:21.730Z,27.30
2018-12-16T01:48:50.512Z,28.42
2018-12-16T01:51:19.310Z,27.05
2018-12-16T01:53:48.095Z,26.85
2018-12-16T01:56:16.882Z,29.18
2018-12-16T01:58:45.930Z,26.45
2018-12-16T02:01:14.663Z,26.33
2018-12-16T02:03:43.613Z,27.13
2018-12-16T02:06:12.403Z,27.85
2018-12-16T02:08:42.210Z,27.17
2018-12-16T02:11:12.965Z,26.25
2018-12-16T02:13:41.877Z,24.87
2018-12-16T02:16:10.666Z,24.25
2018-12-16T02:18:39.454Z,27.60
2018-12-16T02:21:08.244Z,21.42
2018-12-16T02:23:37.338Z,25.60
2018-12-16T02:26:06.128Z,23.30
2018-12-16T02:28:35.019Z,23.92
2018-12-16T02:31:03.808Z,24.72
2018-12-16T02:33:32.596Z,20.25
2018-12-16T02:36:02.309Z,22.73
2018-12-16T02:38:31.093Z,20.72
2018-12-16T02:40:59.984Z,18.32
2018-12-16T02:43:28.976Z,21.95
2018-12-16T02:45:57.969Z,20.90
2018-12-16T02:48:26.864Z,22.35
2018-12-16T02:50:56.261Z,21.73
2018-12-16T02:53:25.156Z,21.57
2018-12-16T02:55:54.042Z,19.62
2018-12-16T02:58:22.830Z,18.57
2018-12-16T03:00:51.926Z,18.55
2018-12-16T03:03:20.712Z,19.45
2018-12-16T03:05:49.500Z,17.82
2018-12-16T03:08:18.392Z,18.07
2018-12-16T03:10:47.181Z,16.87
2018-12-16T03:13:16.558Z,17.87
2018-12-16T03:15:45.529Z,15.80
2018-12-16T03:18:14.625Z,17.55
2018-12-16T03:20:43.599Z,15.60
2018-12-16T03:23:12.727Z,13.95
2018-12-16T03:25:41.852Z,15.08
2018-12-16T03:28:10.839Z,15.10
2018-12-16T03:30:39.633Z,16.48
2018-12-16T03:33:08.525Z,19.10
2018-12-16T03:35:37.315Z,19.05
2018-12-16T03:38:06.199Z,22.13
2018-12-16T03:40:35.140Z,21.15
2018-12-16T03:43:03.982Z,21.65
2018-12-16T03:45:32.769Z,24.45
2018-12-16T03:48:01.454Z,25.97
2018-12-16T03:50:30.348Z,22.82
2018-12-16T03:52:59.340Z,23.80
2018-12-16T03:55:28.127Z,19.67
2018-12-16T03:57:57.119Z,22.13
2018-12-16T04:00:25.905Z,26.95
2018-12-16T04:02:55.002Z,27.65
2018-12-16T04:05:24.405Z,26.93
2018-12-16T04:07:53.298Z,29.35
2018-12-16T04:10:22.235Z,26.80
2018-12-16T04:12:50.979Z,26.35
2018-12-16T04:15:20.079Z,27.55
2018-12-16T04:17:48.863Z,29.35
2018-12-16T04:20:17.859Z,27.15
2018-12-16T04:22:46.640Z,28.55
2018-12-16T04:25:15.635Z,28.65
2018-12-16T04:27:44.776Z,26.48
2018-12-16T04:30:13.723Z,30.40
2018-12-16T04:32:42.614Z,27.58
2018-12-16T04:35:11.403Z,29.23
2018-12-16T04:37:40.182Z,27.48
2018-12-16T04:40:09.073Z,30.08
2018-12-16T04:42:37.939Z,27.40
2018-12-16T04:45:07.166Z,29.37
2018-12-16T04:47:36.055Z,32.20
2018-12-16T04:50:05.285Z,31.62
2018-12-16T04:52:34.245Z,30.57
2018-12-16T04:55:03.179Z,28.50
2018-12-16T04:57:31.921Z,31.80
2018-12-16T05:00:00.756Z,32.80
2018-12-16T05:02:29.597Z,34.45
2018-12-16T05:04:58.489Z,34.10
2018-12-16T05:07:27.276Z,31.80
2018-12-16T05:10:06.201Z,37.08
2018-12-16T05:12:34.943Z,31.57
2018-12-16T05:15:03.880Z,33.88
2018-12-16T05:17:32.772Z,35.58
2018-12-16T05:20:01.663Z,34.30
2018-12-16T05:22:30.655Z,29.80
2018-12-16T05:24:59.549Z,30.50
2018-12-16T05:27:28.335Z,32.67
2018-12-16T05:29:57.218Z,32.03
2018-12-16T05:32:26.013Z,29.12
2018-12-16T05:34:54.902Z,30.72
2018-12-16T05:37:23.691Z,32.10
2018-12-16T05:39:52.781Z,32.17
2018-12-16T05:42:21.566Z,32.83
2018-12-16T05:44:50.354Z,29.98
2018-12-16T05:47:20.479Z,26.73
2018-12-16T05:49:49.873Z,28.60
2018-12-16T05:52:18.868Z,31.65
2018-12-16T05:54:47.964Z,31.45
2018-12-16T05:57:16.751Z,31.75
2018-12-16T05:59:46.136Z,31.48
2018-12-16T06:02:14.929Z,31.02
2018-12-16T06:04:45.214Z,31.07
2018-12-16T06:07:14.262Z,30.68
2018-12-16T06:09:43.990Z,32.33
2018-12-16T06:12:12.810Z,31.73
2018-12-16T06:14:41.543Z,33.38
2018-12-16T06:17:10.332Z,31.15
2018-12-16T06:19:39.120Z,32.98
2018-12-16T06:22:07.906Z,33.73
2018-12-16T06:24:37.001Z,30.80
2018-12-16T06:27:05.895Z,28.83
2018-12-16T06:29:34.784Z,32.30
2018-12-16T06:32:04.081Z,33.45
2018-12-16T06:34:33.042Z,32.60
2018-12-16T06:37:02.069Z,31.20
2018-12-16T06:39:30.980Z,34.30
2018-12-16T06:41:59.744Z,30.50
2018-12-16T06:44:28.801Z,29.50
2018-12-16T06:46:57.627Z,31.80
2018-12-16T06:49:26.414Z,28.87
2018-12-16T06:51:55.204Z,25.40
2018-12-16T06:54:24.073Z,30.75
2018-12-16T06:56:52.887Z,30.23
2018-12-16T06:59:21.673Z,30.75
2018-12-16T07:01:50.401Z,30.15
2018-12-16T07:04:19.129Z,28.75
2018-12-16T07:06:48.353Z,27.55
2018-12-16T07:09:17.148Z,26.00
2018-12-16T07:11:45.954Z,27.40
2018-12-16T07:14:14.721Z,25.30
2018-12-16T07:16:43.594Z,30.72
2018-12-16T07:19:12.805Z,28.73
2018-12-16T07:21:41.592Z,26.20
2018-12-16T07:24:10.487Z,27.20
2018-12-16T07:26:39.275Z,27.80
2018-12-16T07:29:08.073Z,28.12
2018-12-16T07:31:37.159Z,27.02
2018-12-16T07:34:05.850Z,23.85
2018-12-16T07:36:34.681Z,26.65
2018-12-16T07:39:03.550Z,26.35
2018-12-16T07:41:32.415Z,27.10
2018-12-16T07:44:01.330Z,24.20
2018-12-16T07:46:30.087Z,24.82
2018-12-16T07:48:59.182Z,25.17
2018-12-16T07:51:27.972Z,24.35
2018-12-16T07:53:56.652Z,22.87
2018-12-16T07:56:26.533Z,25.00
2018-12-16T07:58:55.464Z,24.60
2018-12-16T08:01:24.466Z,24.95
2018-12-16T08:03:53.236Z,24.65
2018-12-16T08:06:22.039Z,23.05
2018-12-16T08:08:50.915Z,22.07
2018-12-16T08:11:19.702Z,22.22
2018-12-16T08:13:48.491Z,21.42
2018-12-16T08:16:17.279Z,20.43
2018-12-16T08:18:45.964Z,23.40
2018-12-16T08:21:14.998Z,22.42
2018-12-16T08:23:43.744Z,24.43
2018-12-16T08:26:12.636Z,23.25
2018-12-16T08:28:41.626Z,22.73
2018-12-16T08:31:10.619Z,23.15
2018-12-16T08:33:39.407Z,23.57
2018-12-16T08:36:08.195Z,21.68
2018-12-16T08:38:37.070Z,22.95
2018-12-16T08:41:05.979Z,19.62
2018-12-16T08:43:35.075Z,19.98
2018-12-16T08:46:04.067Z,21.05
2018-12-16T08:48:32.958Z,21.65
2018-12-16T08:51:01.741Z,20.43
2018-12-16T08:53:30.846Z,21.80
2018-12-16T08:55:59.628Z,19.35
2018-12-16T08:58:28.518Z,21.10
2018-12-16T09:00:57.308Z,21.33
2018-12-16T09:03:26.093Z,20.82
2018-12-16T09:05:55.086Z,22.37
2018-12-16T09:08:23.898Z,21.00
2018-12-16T09:10:52.965Z,18.65
2018-12-16T09:13:21.754Z,20.20
2018-12-16T09:15:50.494Z,21.65
2018-12-16T09:18:19.329Z,18.90
2018-12-16T09:20:49.238Z,18.82
2018-12-16T09:23:18.441Z,19.37
2018-12-16T09:25:47.640Z,20.37
2018-12-16T09:28:16.434Z,19.17
2018-12-16T09:30:45.316Z,17.30
2018-12-16T09:33:14.104Z,19.02
2018-12-16T09:35:42.789Z,19.57
2018-12-16T09:38:11.579Z,19.92
2018-12-16T09:40:41.085Z,18.98
2018-12-16T09:43:09.869Z,19.02
2018-12-16T09:45:38.760Z,19.25
2018-12-16T09:48:07.547Z,17.07
2018-12-16T09:50:37.361Z,19.80
2018-12-16T09:53:06.253Z,17.65
2018-12-16T09:55:35.658Z,16.00
2018-12-16T09:58:04.851Z,17.87
2018-12-16T10:00:33.575Z,19.62
2018-12-16T10:03:02.942Z,16.90
2018-12-16T10:05:31.728Z,16.87
2018-12-16T10:08:00.433Z,18.05
2018-12-16T10:10:29.766Z,18.57
2018-12-16T10:12:58.499Z,17.85
2018-12-16T10:15:29.183Z,19.25
2018-12-16T10:17:58.404Z,15.80
2018-12-16T10:20:27.438Z,17.60
2018-12-16T10:22:56.268Z,15.32
2018-12-16T10:25:25.204Z,15.75
2018-12-16T10:27:53.990Z,13.90
2018-12-16T10:30:22.776Z,16.27
2018-12-16T10:32:51.937Z,17.00
2018-12-16T10:35:20.777Z,17.70
2018-12-16T10:37:49.761Z,16.10
2018-12-16T10:40:18.544Z,18.17
2018-12-16T10:42:47.330Z,17.70
2018-12-16T10:45:16.220Z,17.80
2018-12-16T10:47:44.940Z,18.30
2018-12-16T10:50:13.800Z,18.32
2018-12-16T10:52:43.139Z,18.60
2018-12-16T10:55:11.883Z,18.02
2018-12-16T10:57:40.982Z,17.75
2018-12-16T11:00:16.736Z,18.65
2018-12-16T11:02:45.518Z,20.77
2018-12-16T11:05:15.127Z,20.43
2018-12-16T11:07:44.014Z,16.62
2018-12-16T11:10:12.905Z,16.70
2018-12-16T11:12:42.515Z,16.70
2018-12-16T11:15:11.301Z,19.70
2018-12-16T11:17:40.192Z,18.55
2018-12-16T11:20:09.387Z,18.42
2018-12-16T11:22:38.283Z,20.02
2018-12-16T11:25:09.623Z,17.35
2018-12-16T11:27:38.356Z,18.85
2018-12-16T11:30:07.896Z,18.40
2018-12-16T11:32:36.811Z,18.32
2018-12-16T11:35:06.418Z,20.97
2018-12-16T11:37:36.741Z,18.12
2018-12-16T11:40:06.553Z,19.45
2018-12-16T11:42:35.391Z,17.52
2018-12-16T11:45:04.948Z,18.77
2018-12-16T11:47:33.839Z,19.75
2018-12-16T11:50:02.946Z,20.10
2018-12-16T11:52:31.619Z,18.07
2018-12-16T11:55:00.407Z,17.85
2018-12-16T11:57:29.198Z,17.10
2018-12-16T11:59:58.082Z,17.82
2018-12-16T12:02:32.682Z,13.70
2018-12-16T12:04:57.808Z,17.37
2018-12-16T12:07:26.596Z,14.43
2018-12-16T12:09:55.588Z,14.90
2018-12-16T12:12:25.110Z,16.82
2018-12-16T12:14:53.987Z,18.57
2018-12-16T12:17:22.772Z,16.17
2018-12-16T12:19:51.558Z,18.57
2018-12-16T12:22:20.450Z,15.70
2018-12-16T12:24:49.244Z,15.75
2018-12-16T12:27:18.230Z,17.50
2018-12-16T12:29:47.121Z,17.65
2018-12-16T12:32:16.215Z,17.42
2018-12-16T12:34:45.090Z,17.37
2018-12-16T12:37:14.067Z,18.65
2018-12-16T12:39:42.886Z,16.02
2018-12-16T12:42:11.677Z,17.70
2018-12-16T12:44:40.668Z,15.68
2018-12-16T12:47:09.470Z,17.05
2018-12-16T12:49:44.806Z,18.23
2018-12-16T12:52:09.281Z,16.62
2018-12-16T12:54:38.071Z,19.10
2018-12-16T12:57:06.963Z,16.67
2018-12-16T12:59:35.680Z,17.80
2018-12-16T13:02:04.538Z,18.37
2018-12-16T13:04:33.530Z,19.35
2018-12-16T13:07:02.397Z,18.65
2018-12-16T13:09:31.207Z,18.25
2018-12-16T13:12:00.312Z,17.60
2018-12-16T13:14:29.548Z,20.43
2018-12-16T13:16:58.424Z,19.05
2018-12-16T13:19:27.586Z,19.50
2018-12-16T13:21:56.784Z,20.10
2018-12-16T13:24:25.572Z,16.97
2018-12-16T13:26:54.564Z,18.85
2018-12-16T13:29:23.557Z,18.37
2018-12-16T13:31:52.549Z,18.55
2018-12-16T13:34:23.126Z,16.93
2018-12-16T13:36:55.179Z,17.55
2018-12-16T13:40:50.048Z,17.62
2018-12-16T13:43:18.840Z,15.98
2018-12-16T13:45:47.931Z,16.90
2018-12-16T13:48:16.720Z,17.50
2018-12-16T13:50:45.686Z,18.20
2018-12-16T13:53:14.499Z,18.23
2018-12-16T13:55:43.290Z,18.48
2018-12-16T13:58:12.197Z,19.00
2018-12-16T14:00:41.068Z,18.57
2018-12-16T14:03:09.855Z,18.80
2018-12-16T14:05:38.646Z,18.10
2018-12-16T14:08:07.329Z,19.48
2018-12-16T14:10:36.222Z,18.07
2018-12-16T14:13:05.008Z,19.98
2018-12-16T14:15:34.105Z,19.50
2018-12-16T14:18:02.995Z,18.48
2018-12-16T14:20:31.857Z,19.60
2018-12-16T14:23:00.670Z,18.75
2018-12-16T14:25:29.461Z,17.87
2018-12-16T14:27:58.451Z,16.37
2018-12-16T14:30:27.243Z,20.52
2018-12-16T14:32:56.026Z,17.27
2018-12-16T14:35:24.916Z,18.07
2018-12-16T14:37:53.714Z,17.32
2018-12-16T14:40:22.494Z,16.55
2018-12-16T14:42:51.284Z,16.93
2018-12-16T14:45:20.066Z,18.05
2018-12-16T14:47:48.755Z,15.75
2018-12-16T14:50:17.748Z,17.52
2018-12-16T14:52:46.533Z,16.80
2018-12-16T14:55:15.525Z,16.67
2018-12-16T14:57:45.160Z,16.52
2018-12-16T15:00:17.038Z,14.30
2018-12-16T15:02:45.786Z,18.15
2018-12-16T15:05:14.569Z,17.15
2018-12-16T15:07:43.357Z,16.60
2018-12-16T15:10:12.555Z,18.80
2018-12-16T15:12:43.397Z,16.73
2018-12-16T15:15:13.098Z,18.45
2018-12-16T15:17:42.922Z,19.15
2018-12-16T15:20:12.110Z,17.07
2018-12-16T15:22:40.897Z,19.50
2018-12-16T15:25:18.784Z,19.55
2018-12-16T15:28:07.349Z,17.23
2018-12-16T15:30:37.270Z,17.32
2018-12-16T15:33:06.163Z,17.10
2018-12-16T15:35:34.979Z,19.67
2018-12-16T15:38:03.824Z,19.52
2018-12-16T15:40:32.648Z,20.60
2018-12-16T15:43:01.546Z,19.52
2018-12-16T15:45:30.328Z,18.67
2018-12-16T15:47:59.365Z,19.05
2018-12-16T15:50:28.269Z,17.85
2018-12-16T15:52:57.380Z,20.55
2018-12-16T15:55:26.194Z,18.17
2018-12-16T15:57:55.707Z,19.40
2018-12-16T16:00:26.359Z,16.55
2018-12-16T16:02:55.330Z,20.85
2018-12-16T16:05:24.565Z,20.10
2018-12-16T16:07:53.513Z,21.77
2018-12-16T16:10:22.302Z,18.92
2018-12-16T16:12:51.090Z,18.62
2018-12-16T16:15:20.276Z,18.80
2018-12-16T16:17:49.074Z,16.60
2018-12-16T16:20:18.785Z,19.10
2018-12-16T16:22:47.570Z,19.62
2018-12-16T16:25:16.940Z,19.75
2018-12-16T16:27:46.171Z,18.07
2018-12-16T16:30:15.721Z,20.35
2018-12-16T16:32:45.794Z,19.35
2018-12-16T16:35:14.582Z,19.62
2018-12-16T16:37:43.883Z,18.70
2018-12-16T16:40:12.880Z,20.37
2018-12-16T16:42:41.662Z,17.95
2018-12-16T16:45:10.758Z,20.48
2018-12-16T16:47:40.126Z,20.05
2018-12-16T16:50:09.377Z,22.65
2018-12-16T16:52:38.247Z,23.55
2018-12-16T16:55:07.502Z,20.60
2018-12-16T16:57:36.231Z,22.25
2018-12-16T17:00:06.082Z,23.60
2018-12-16T17:02:34.832Z,21.90
2018-12-16T17:05:03.724Z,21.75
2018-12-16T17:07:32.626Z,21.85
2018-12-16T17:10:01.514Z,20.55
2018-12-16T17:12:30.496Z,22.32
2018-12-16T17:14:59.187Z,19.95
2018-12-16T17:17:28.080Z,20.52
2018-12-16T17:19:56.963Z,21.25
2018-12-16T17:22:25.748Z,20.72
2018-12-16T17:24:54.539Z,23.05
2018-12-16T17:27:23.328Z,24.67
2018-12-16T17:29:52.114Z,25.12
2018-12-16T17:32:20.902Z,23.00
2018-12-16T17:34:49.691Z,22.17
2018-12-16T17:37:18.590Z,23.22
2018-12-16T17:39:47.475Z,21.50
2018-12-16T17:42:16.261Z,22.10
2018-12-16T17:44:45.234Z,21.75
2018-12-16T17:47:14.131Z,20.62
2018-12-16T17:49:42.939Z,21.62
2018-12-16T17:52:11.925Z,19.85
2018-12-16T17:54:40.712Z,22.50
2018-12-16T17:57:09.546Z,20.95
2018-12-16T17:59:38.293Z,19.40
2018-12-16T18:02:07.695Z,23.27
2018-12-16T18:04:36.479Z,24.00
2018-12-16T18:07:05.470Z,21.55
2018-12-16T18:09:34.567Z,21.20
2018-12-16T18:12:03.618Z,22.98
2018-12-16T18:14:32.762Z,21.17
2018-12-16T18:17:02.771Z,22.52
2018-12-16T18:19:32.381Z,22.65
2018-12-16T18:22:01.460Z,22.42
2018-12-16T18:24:30.571Z,22.45
2018-12-16T18:26:59.454Z,23.02
2018-12-16T18:29:28.251Z,21.35
2018-12-16T18:31:57.272Z,24.12
2018-12-16T18:34:26.340Z,21.55
2018-12-16T18:36:55.327Z,22.37
2018-12-16T18:39:24.221Z,23.67
2018-12-16T18:41:53.419Z,20.08
2018-12-16T18:44:22.205Z,20.17
2018-12-16T18:46:50.891Z,23.65
2018-12-16T18:49:19.983Z,21.00
2018-12-16T18:51:48.773Z,25.20
2018-12-16T18:54:17.701Z,23.47
2018-12-16T18:56:51.035Z,24.23
2018-12-16T18:59:17.369Z,22.50
2018-12-16T19:01:46.172Z,22.52
2018-12-16T19:04:14.962Z,23.67
2018-12-16T19:06:43.749Z,22.07
2018-12-16T19:09:12.589Z,24.02
2018-12-16T19:11:41.324Z,24.60
2018-12-16T19:14:10.111Z,23.18
2018-12-16T19:16:43.391Z,21.62
2018-12-16T19:19:13.014Z,21.12
2018-12-16T19:21:41.800Z,21.77
2018-12-16T19:24:10.485Z,23.22
2018-12-16T19:26:39.273Z,22.95
2018-12-16T19:29:08.072Z,22.70
2018-12-16T19:31:36.849Z,21.10
2018-12-16T19:34:05.639Z,24.25
2018-12-16T19:36:34.527Z,22.77
2018-12-16T19:39:03.973Z,24.92
2018-12-16T19:41:33.745Z,25.45
2018-12-16T19:44:02.630Z,23.15
2018-12-16T19:46:31.419Z,25.82
2018-12-16T19:49:00.310Z,22.87
2018-12-16T19:51:29.097Z,21.50
2018-12-16T19:53:57.886Z,23.35
2018-12-16T19:56:26.779Z,25.77
2018-12-16T19:58:55.766Z,23.57
2018-12-16T20:01:24.759Z,23.00
2018-12-16T20:03:58.876Z,23.87
2018-12-16T20:06:32.989Z,24.82
2018-12-16T20:09:01.968Z,24.07
2018-12-16T20:11:30.974Z,24.90
2018-12-16T20:13:59.862Z,23.98
2018-12-16T20:16:28.787Z,22.55
2018-12-16T20:18:57.838Z,24.15
2018-12-16T20:21:26.844Z,23.65
2018-12-16T20:23:55.944Z,23.32
2018-12-16T20:26:24.933Z,20.17
2018-12-16T20:28:53.716Z,21.02
2018-12-16T20:31:22.546Z,21.40
2018-12-16T20:33:51.393Z,24.20
2018-12-16T20:36:21.430Z,24.55
2018-12-16T20:38:52.938Z,24.10
2018-12-16T20:41:23.344Z,21.50
2018-12-16T20:43:52.423Z,23.38
2018-12-16T20:46:21.372Z,22.93
2018-12-16T20:48:50.441Z,24.75
2018-12-16T20:51:19.359Z,24.05
2018-12-16T20:53:48.452Z,20.08
2018-12-16T20:56:17.551Z,22.50
2018-12-16T20:58:46.673Z,23.32
2018-12-16T21:01:15.334Z,24.05
2018-12-16T21:03:44.320Z,24.02
2018-12-16T21:09:50.272Z,24.12
2018-12-16T21:15:48.474Z,23.02
2018-12-16T21:18:41.338Z,22.73
2018-12-16T21:21:53.275Z,22.27
2018-12-16T21:24:53.548Z,20.77
2018-12-16T21:31:07.214Z,25.25
2018-12-16T21:36:47.860Z,23.90
2018-12-16T21:39:31.948Z,26.85
2018-12-16T21:42:18.183Z,24.05
2018-12-16T21:51:45.096Z,26.33
2018-12-16T22:00:48.334Z,26.45
2018-12-16T22:03:21.669Z,25.97
2018-12-16T22:05:55.208Z,25.82
2018-12-16T22:08:24.383Z,26.37
2018-12-16T22:10:53.378Z,26.68
2018-12-16T22:13:22.338Z,26.60
2018-12-16T22:15:52.248Z,27.65
2018-12-16T22:18:20.786Z,24.47
2018-12-16T22:20:49.655Z,27.27
2018-12-16T22:23:22.561Z,26.42
2018-12-16T22:25:52.546Z,27.45
2018-12-16T22:28:23.796Z,28.40
2018-12-16T22:30:53.878Z,26.20
2018-12-16T22:33:24.240Z,27.22
2018-12-16T22:35:52.853Z,25.52
2018-12-16T22:38:21.670Z,28.95
2018-12-16T22:40:50.406Z,26.97
2018-12-16T22:43:19.230Z,27.50
2018-12-16T22:45:47.834Z,27.48
2018-12-16T22:48:16.238Z,28.12
2018-12-16T22:50:44.626Z,30.70
2018-12-16T22:53:12.945Z,26.35
2018-12-16T22:55:41.431Z,27.07
2018-12-16T22:58:09.766Z,27.10
2018-12-16T23:00:42.568Z,27.15
2018-12-16T23:03:10.865Z,28.45
2018-12-16T23:05:39.174Z,28.25
2018-12-16T23:08:07.666Z,25.88
2018-12-16T23:10:35.995Z,27.58
2018-12-16T23:13:04.583Z,26.97
2018-12-16T23:15:33.163Z,28.20
2018-12-16T23:18:01.508Z,28.70
2018-12-16T23:20:29.856Z,29.50
2018-12-16T23:22:58.175Z,31.62
2018-12-16T23:25:26.518Z,26.93
2018-12-16T23:27:54.917Z,29.00
2018-12-16T23:30:23.226Z,26.75
2018-12-16T23:32:51.521Z,25.15
2018-12-16T23:35:19.995Z,26.00
2018-12-16T23:37:48.300Z,25.52
2018-12-16T23:40:16.614Z,25.08
2018-12-16T23:42:45.087Z,27.67
2018-12-16T23:45:13.562Z,28.83
2018-12-16T23:47:41.868Z,29.85
2018-12-16T23:50:10.320Z,29.52
2018-12-16T23:52:38.679Z,27.22
2018-12-16T23:55:07.162Z,24.92
2018-12-16T23:57:35.582Z,30.00
